createdAt,value
2019-03-04T00:02:18.569Z,10.50
2019-03-04T00:04:58.792Z,10.40
2019-03-04T00:07:38.633Z,10.40
2019-03-04T00:10:18.849Z,10.30
2019-03-04T00:12:59.093Z,10.60
2019-03-04T00:15:39.353Z,10.60
2019-03-04T00:18:19.685Z,10.70
2019-03-04T00:20:59.763Z,10.80
2019-03-04T00:23:39.776Z,10.60
2019-03-04T00:26:19.916Z,10.60
2019-03-04T00:29:00.110Z,10.50
2019-03-04T00:31:40.383Z,10.40
2019-03-04T00:34:20.713Z,10.10
2019-03-04T00:37:00.586Z,10.00
2019-03-04T00:39:40.696Z,10.10
2019-03-04T00:42:20.764Z,10.20
2019-03-04T00:45:00.870Z,10.10
2019-03-04T00:47:41.034Z,10.00
2019-03-04T00:50:21.088Z,9.90
2019-03-04T00:53:01.101Z,9.80
2019-03-04T00:55:41.264Z,9.80
2019-03-04T00:58:21.512Z,10.00
2019-03-04T01:01:01.603Z,10.00
2019-03-04T01:03:41.769Z,10.00
2019-03-04T01:06:21.752Z,9.90
2019-03-04T01:12:00.472Z,9.60
2019-03-04T01:14:40.367Z,9.40
2019-03-04T01:17:20.547Z,9.50
2019-03-04T01:20:00.776Z,9.70
2019-03-04T01:22:28.484Z,9.70
2019-03-04T01:25:15.983Z,9.40
2019-03-04T01:27:56.201Z,9.50
2019-03-04T01:30:36.609Z,9.60
2019-03-04T01:33:16.797Z,9.50
2019-03-04T01:35:56.785Z,9.50
2019-03-04T01:38:36.856Z,9.50
2019-03-04T01:41:17.179Z,9.50
2019-03-04T01:43:57.325Z,9.80
2019-03-04T01:46:37.398Z,9.60
2019-03-04T01:49:17.519Z,9.50
2019-03-04T01:51:57.663Z,9.40
2019-03-04T01:54:37.745Z,9.40
2019-03-04T01:57:17.859Z,9.50
2019-03-04T01:59:57.788Z,9.40
2019-03-04T02:02:37.856Z,9.50
2019-03-04T02:05:19.016Z,9.20
2019-03-04T02:07:59.079Z,9.10
2019-03-04T02:10:39.361Z,9.00
2019-03-04T02:13:19.537Z,9.30
2019-03-04T02:15:59.912Z,8.90
2019-03-04T02:18:39.953Z,9.10
2019-03-04T02:21:20.053Z,8.90
2019-03-04T02:24:00.262Z,8.90
2019-03-04T02:26:40.532Z,8.60
2019-03-04T02:29:20.621Z,8.70
2019-03-04T02:32:00.612Z,8.60
2019-03-04T02:34:40.795Z,8.50
2019-03-04T02:37:20.941Z,8.50
2019-03-04T02:40:01.389Z,8.70
2019-03-04T02:42:41.775Z,8.50
2019-03-04T02:45:21.968Z,8.50
2019-03-04T02:48:01.900Z,8.70
2019-03-04T02:50:42.432Z,8.70
2019-03-04T02:53:22.156Z,8.80
2019-03-04T02:56:02.244Z,9.00
2019-03-04T02:58:42.372Z,8.90
2019-03-04T03:01:22.418Z,8.90
2019-03-04T03:04:02.636Z,9.10
2019-03-04T03:06:42.592Z,9.10
2019-03-04T03:09:22.605Z,8.90
2019-03-04T03:12:03.186Z,8.90
2019-03-04T03:14:43.106Z,9.00
2019-03-04T03:17:23.249Z,9.00
2019-03-04T03:20:03.139Z,9.00
2019-03-04T03:22:43.419Z,8.90
2019-03-04T03:25:23.550Z,9.20
2019-03-04T03:28:03.942Z,9.10
2019-03-04T03:30:43.554Z,9.10
2019-03-04T03:33:23.629Z,9.00
2019-03-04T03:36:03.685Z,9.20
2019-03-04T03:38:43.828Z,9.40
2019-03-04T03:41:23.871Z,9.40
2019-03-04T03:44:04.611Z,9.60
2019-03-04T03:46:44.350Z,9.60
2019-03-04T03:49:24.997Z,9.60
2019-03-04T03:52:04.853Z,9.90
2019-03-04T03:54:44.828Z,9.90
2019-03-04T03:57:24.820Z,9.90
2019-03-04T04:00:04.845Z,9.80
2019-03-04T04:02:45.141Z,9.90
2019-03-04T04:05:25.396Z,9.70
2019-03-04T04:08:06.410Z,9.60
2019-03-04T04:10:46.529Z,9.60
2019-03-04T04:13:26.654Z,9.60
2019-03-04T04:16:06.737Z,9.70
2019-03-04T04:18:46.949Z,9.80
2019-03-04T04:21:26.614Z,9.60
2019-03-04T04:26:49.903Z,9.60
2019-03-04T04:29:37.867Z,9.60
2019-03-04T04:32:06.018Z,9.40
2019-03-04T04:34:33.601Z,9.20
2019-03-04T04:37:01.223Z,9.10
2019-03-04T04:39:28.816Z,9.10
2019-03-04T04:41:56.371Z,9.00
2019-03-04T04:44:23.960Z,8.90
2019-03-04T04:46:58.736Z,8.90
2019-03-04T04:49:28.594Z,8.90
2019-03-04T04:51:56.155Z,8.90
2019-03-04T04:54:23.749Z,9.30
2019-03-04T04:56:51.413Z,9.40
2019-03-04T04:59:19.084Z,9.40
2019-03-04T05:01:46.992Z,9.30
2019-03-04T05:04:14.580Z,9.30
2019-03-04T05:06:42.240Z,9.40
2019-03-04T05:09:09.945Z,9.40
2019-03-04T05:11:37.573Z,9.50
2019-03-04T05:14:05.304Z,9.50
2019-03-04T05:16:32.946Z,9.40
2019-03-04T05:19:00.789Z,9.40
2019-03-04T05:21:28.476Z,9.50
2019-03-04T05:23:56.158Z,9.60
2019-03-04T05:26:23.755Z,9.50
2019-03-04T05:28:51.412Z,9.90
2019-03-04T05:31:19.117Z,9.80
2019-03-04T05:33:47.292Z,9.80
2019-03-04T05:36:14.986Z,9.80
2019-03-04T05:38:42.752Z,9.70
2019-03-04T05:41:10.425Z,9.70
2019-03-04T05:43:38.074Z,9.70
2019-03-04T05:46:05.696Z,9.60
2019-03-04T05:48:33.316Z,9.80
2019-03-04T05:51:00.959Z,9.90
2019-03-04T05:53:28.579Z,10.00
2019-03-04T05:55:56.264Z,10.00
2019-03-04T06:01:31.457Z,9.80
2019-03-04T06:04:11.303Z,9.70
2019-03-04T06:06:55.062Z,9.50
2019-03-04T06:09:35.532Z,9.60
2019-03-04T06:12:15.724Z,9.40
2019-03-04T06:14:56.140Z,9.40
2019-03-04T06:17:36.377Z,9.70
2019-03-04T06:20:16.962Z,9.60
2019-03-04T06:22:57.115Z,9.40
2019-03-04T06:25:37.069Z,9.70
2019-03-04T06:28:05.358Z,9.70
2019-03-04T06:30:52.450Z,9.70
2019-03-04T06:33:39.494Z,9.90
2019-03-04T06:36:19.798Z,10.00
2019-03-04T06:38:59.668Z,9.80
2019-03-04T06:41:39.745Z,9.60
2019-03-04T06:44:19.758Z,9.70
2019-03-04T06:46:59.771Z,9.60
2019-03-04T06:49:40.202Z,9.70
2019-03-04T06:52:20.128Z,10.10
2019-03-04T06:55:00.337Z,10.40
2019-03-04T07:00:22.677Z,10.80
2019-03-04T07:03:02.550Z,10.80
2019-03-04T07:05:43.203Z,10.90
2019-03-04T07:08:23.041Z,11.00
2019-03-04T07:11:03.030Z,11.10
2019-03-04T07:13:43.155Z,11.50
2019-03-04T07:16:23.306Z,11.60
2019-03-04T07:19:03.511Z,11.90
2019-03-04T07:21:44.031Z,12.40
2019-03-04T07:24:24.573Z,12.50
2019-03-04T07:27:04.432Z,12.70
2019-03-04T07:29:44.561Z,13.10
2019-03-04T07:32:25.136Z,13.40
2019-03-04T07:35:04.904Z,13.80
2019-03-04T07:37:44.984Z,14.10
2019-03-04T07:40:25.161Z,14.70
2019-03-04T07:43:06.014Z,14.80
2019-03-04T07:45:46.461Z,15.00
2019-03-04T07:48:26.233Z,15.30
2019-03-04T07:51:06.343Z,15.80
2019-03-04T07:53:46.959Z,16.10
2019-03-04T07:56:26.614Z,16.80
2019-03-04T07:59:06.973Z,17.00
2019-03-04T08:01:47.019Z,17.50
2019-03-04T08:07:26.254Z,18.20
2019-03-04T08:10:06.421Z,18.50
2019-03-04T08:12:46.697Z,19.40
2019-03-04T08:15:26.767Z,19.90
2019-03-04T08:18:07.331Z,20.50
2019-03-04T08:20:34.859Z,20.60
2019-03-04T08:23:02.456Z,21.20
2019-03-04T08:25:30.198Z,21.40
2019-03-04T08:27:57.786Z,21.40
2019-03-04T08:30:25.534Z,21.60
2019-03-04T08:32:53.275Z,21.90
2019-03-04T08:35:21.120Z,22.00
2019-03-04T08:37:48.730Z,22.10
2019-03-04T08:40:16.460Z,22.30
2019-03-04T08:42:44.276Z,22.60
2019-03-04T08:45:13.855Z,22.80
2019-03-04T08:47:41.468Z,23.40
2019-03-04T08:50:09.656Z,23.20
2019-03-04T08:52:49.397Z,23.20
2019-03-04T08:55:29.476Z,22.90
2019-03-04T08:58:09.441Z,22.70
2019-03-04T09:00:49.508Z,22.70
2019-03-04T09:03:29.761Z,22.50
2019-03-04T09:06:12.435Z,22.20
2019-03-04T09:08:53.000Z,21.90
2019-03-04T09:11:33.233Z,21.50
2019-03-04T09:14:13.235Z,21.20
2019-03-04T09:16:53.704Z,21.00
2019-03-04T09:19:33.492Z,21.30
2019-03-04T09:22:02.072Z,21.30
2019-03-04T09:24:49.092Z,21.30
2019-03-04T09:27:28.754Z,21.30
2019-03-04T09:30:08.405Z,20.80
2019-03-04T09:32:48.762Z,20.40
2019-03-04T09:35:28.478Z,20.30
2019-03-04T09:38:08.916Z,20.20
2019-03-04T09:40:48.822Z,20.00
2019-03-04T09:43:28.993Z,20.10
2019-03-04T09:46:09.064Z,20.30
2019-03-04T09:52:00.865Z,20.50
2019-03-04T09:54:41.052Z,20.50
2019-03-04T09:57:21.061Z,20.50
2019-03-04T10:00:01.115Z,20.10
2019-03-04T10:02:41.499Z,19.90
2019-03-04T10:05:21.377Z,19.70
2019-03-04T10:08:01.398Z,19.30
2019-03-04T10:10:41.565Z,18.60
2019-03-04T10:13:21.525Z,18.30
2019-03-04T10:16:28.204Z,17.70
2019-03-04T10:19:34.632Z,17.30
2019-03-04T10:22:14.252Z,17.00
2019-03-04T10:24:54.549Z,16.70
2019-03-04T10:27:34.568Z,16.50
2019-03-04T10:30:14.472Z,16.30
2019-03-04T10:32:54.628Z,15.90
2019-03-04T10:35:34.642Z,15.70
2019-03-04T10:38:22.303Z,15.30
2019-03-04T10:40:57.927Z,14.90
2019-03-04T10:43:38.312Z,14.60
2019-03-04T10:46:19.785Z,14.30
2019-03-04T10:49:01.765Z,13.90
2019-03-04T10:51:41.797Z,13.60
2019-03-04T10:54:21.723Z,13.30
2019-03-04T10:57:01.928Z,13.20
2019-03-04T10:59:41.901Z,13.20
2019-03-04T11:02:21.892Z,13.00
2019-03-04T11:05:01.853Z,13.00
2019-03-04T11:07:42.214Z,12.90
2019-03-04T11:10:22.276Z,12.60
2019-03-04T11:13:02.228Z,12.40
2019-03-04T11:15:42.562Z,12.20
2019-03-04T11:18:22.744Z,11.90
2019-03-04T11:21:02.652Z,11.70
2019-03-04T11:23:42.922Z,11.60
2019-03-04T11:26:23.256Z,11.50
2019-03-04T11:29:03.820Z,11.80
2019-03-04T11:31:45.149Z,11.30
2019-03-04T11:34:25.754Z,11.20
2019-03-04T11:37:06.056Z,11.10
2019-03-04T11:40:05.293Z,11.00
2019-03-04T11:42:44.993Z,11.10
2019-03-04T11:45:25.072Z,11.20
2019-03-04T11:48:05.172Z,10.80
2019-03-04T11:50:45.369Z,10.70
2019-03-04T11:53:26.114Z,10.50
2019-03-04T11:56:05.809Z,10.60
2019-03-04T11:58:45.936Z,10.50
2019-03-04T12:04:36.024Z,10.50
2019-03-04T12:09:58.446Z,10.30
2019-03-04T12:12:38.635Z,10.30
2019-03-04T12:15:19.004Z,10.20
2019-03-04T12:17:59.028Z,10.30
2019-03-04T12:20:39.145Z,10.00
2019-03-04T12:23:06.800Z,10.00
2019-03-04T12:25:54.407Z,9.80
2019-03-04T12:28:34.790Z,10.00
2019-03-04T12:31:14.818Z,9.70
2019-03-04T12:33:55.074Z,9.70
2019-03-04T12:36:35.040Z,9.70
2019-03-04T12:39:15.200Z,9.70
2019-03-04T12:41:55.298Z,9.60
2019-03-04T12:44:35.292Z,9.30
2019-03-04T12:47:16.397Z,9.10
2019-03-04T12:49:56.397Z,9.10
2019-03-04T12:52:36.272Z,9.30
2019-03-04T12:55:16.624Z,9.10
2019-03-04T12:57:56.805Z,8.80
2019-03-04T13:00:37.125Z,8.70
2019-03-04T13:03:17.221Z,8.70
2019-03-04T13:05:57.721Z,8.40
2019-03-04T13:08:37.424Z,8.70
2019-03-04T13:14:18.804Z,8.70
2019-03-04T13:16:59.038Z,8.90
2019-03-04T13:19:26.836Z,8.90
2019-03-04T13:22:14.225Z,9.00
2019-03-04T13:24:54.672Z,9.20
2019-03-04T13:27:34.844Z,9.20
2019-03-04T13:30:15.943Z,9.30
2019-03-04T13:32:56.612Z,9.30
2019-03-04T13:35:38.302Z,9.70
2019-03-04T13:38:18.929Z,9.70
2019-03-04T13:40:58.809Z,9.90
2019-03-04T13:43:39.157Z,9.90
2019-03-04T13:46:19.384Z,10.10
2019-03-04T13:48:59.339Z,10.30
2019-03-04T13:51:39.283Z,10.30
2019-03-04T13:54:19.396Z,10.40
2019-03-04T13:56:59.548Z,10.50
2019-03-04T13:59:39.568Z,10.60
2019-03-04T14:02:19.559Z,10.70
2019-03-04T14:04:59.944Z,10.70
2019-03-04T14:07:39.664Z,10.40
2019-03-04T14:10:20.102Z,10.70
2019-03-04T14:12:59.981Z,11.10
2019-03-04T14:15:39.959Z,11.10
2019-03-04T14:18:19.949Z,11.20
2019-03-04T14:21:00.117Z,11.20
2019-03-04T14:23:27.785Z,11.40
2019-03-04T14:26:14.832Z,11.40
2019-03-04T14:28:54.664Z,11.50
2019-03-04T14:31:34.717Z,11.20
2019-03-04T14:34:14.814Z,11.30
2019-03-04T14:36:54.910Z,11.50
2019-03-04T14:39:34.805Z,11.80
2019-03-04T14:42:15.704Z,11.50
2019-03-04T14:44:56.165Z,11.80
2019-03-04T14:47:36.103Z,11.90
2019-03-04T14:50:16.225Z,11.70
2019-03-04T14:52:56.540Z,12.50
2019-03-04T14:55:37.308Z,13.20
2019-03-04T14:58:17.490Z,14.20
2019-03-04T15:00:57.694Z,15.50
2019-03-04T15:03:37.918Z,16.50
2019-03-04T15:06:07.142Z,16.90
2019-03-04T15:08:35.166Z,17.70
2019-03-04T15:11:02.813Z,18.20
2019-03-04T15:13:30.427Z,18.90
2019-03-04T15:16:02.525Z,19.40
2019-03-04T15:18:27.539Z,19.80
2019-03-04T15:20:55.167Z,19.90
2019-03-04T15:23:22.889Z,20.20
2019-03-04T15:26:09.958Z,20.00
2019-03-04T15:28:56.992Z,20.00
2019-03-04T15:31:37.141Z,19.50
2019-03-04T15:34:17.144Z,19.10
2019-03-04T15:36:57.205Z,18.70
2019-03-04T15:39:37.722Z,18.20
2019-03-04T15:42:18.009Z,18.40
2019-03-04T15:44:58.135Z,18.20
2019-03-04T15:47:39.239Z,18.40
2019-03-04T15:50:19.747Z,18.50
2019-03-04T15:52:59.742Z,17.90
2019-03-04T15:55:39.873Z,17.00
2019-03-04T15:58:20.076Z,16.50
2019-03-04T16:01:00.086Z,15.90
2019-03-04T16:03:41.394Z,15.30
2019-03-04T16:06:21.432Z,15.00
2019-03-04T16:09:01.436Z,14.60
2019-03-04T16:11:41.854Z,14.10
2019-03-04T16:14:21.764Z,14.10
2019-03-04T16:17:01.613Z,14.00
2019-03-04T16:22:44.820Z,13.70
2019-03-04T16:25:25.244Z,13.50
2019-03-04T16:28:05.426Z,13.30
2019-03-04T16:30:45.777Z,13.30
2019-03-04T16:33:26.399Z,13.30
2019-03-04T16:36:06.021Z,13.00
2019-03-04T16:38:46.336Z,13.00
2019-03-04T16:41:26.392Z,12.90
2019-03-04T16:44:06.582Z,12.60
2019-03-04T16:46:46.961Z,12.40
2019-03-04T16:49:14.737Z,12.40
2019-03-04T16:52:02.402Z,12.20
2019-03-04T16:54:42.523Z,12.10
2019-03-04T16:57:22.882Z,11.90
2019-03-04T17:00:03.209Z,11.80
2019-03-04T17:02:43.418Z,11.60
2019-03-04T17:05:23.525Z,11.30
2019-03-04T17:08:03.810Z,11.00
2019-03-04T17:10:43.998Z,10.60
2019-03-04T17:13:24.299Z,10.60
2019-03-04T17:16:04.176Z,10.30
2019-03-04T17:18:44.276Z,9.90
2019-03-04T17:21:24.341Z,9.80
2019-03-04T17:24:04.445Z,9.90
2019-03-04T17:26:44.489Z,9.70
2019-03-04T17:29:24.775Z,9.50
2019-03-04T17:32:05.184Z,9.60
2019-03-04T17:37:58.450Z,9.30
2019-03-04T17:40:38.137Z,9.60
2019-03-04T17:43:18.570Z,9.90
2019-03-04T17:45:58.584Z,9.70
2019-03-04T17:48:38.731Z,9.60
2019-03-04T17:51:18.706Z,9.60
2019-03-04T17:53:58.701Z,9.80
2019-03-04T17:56:38.872Z,9.90
2019-03-04T17:59:19.100Z,10.10
2019-03-04T18:01:59.042Z,10.10
2019-03-04T18:04:38.994Z,9.90
2019-03-04T18:07:19.306Z,10.20
2019-03-04T18:09:59.641Z,10.00
2019-03-04T18:12:40.884Z,10.20
2019-03-04T18:15:21.016Z,10.20
2019-03-04T18:18:01.433Z,10.20
2019-03-04T18:20:41.452Z,10.50
2019-03-04T18:23:21.703Z,10.70
2019-03-04T18:26:01.599Z,10.60
2019-03-04T18:28:41.931Z,10.70
2019-03-04T18:31:21.941Z,10.90
2019-03-04T18:34:02.080Z,10.90
2019-03-04T18:36:42.109Z,10.90
2019-03-04T18:39:22.241Z,10.50
2019-03-04T18:42:02.725Z,10.70
2019-03-04T18:44:42.554Z,11.10
2019-03-04T18:47:22.613Z,11.20
2019-03-04T18:50:03.052Z,10.80
2019-03-04T18:52:43.198Z,10.80
2019-03-04T18:55:23.073Z,11.10
2019-03-04T18:58:03.266Z,11.20
2019-03-04T19:00:43.332Z,11.00
2019-03-04T19:03:23.737Z,11.60
2019-03-04T19:06:03.556Z,11.30
2019-03-04T19:08:43.703Z,11.30
2019-03-04T19:11:23.951Z,11.30
2019-03-04T19:14:04.128Z,11.20
2019-03-04T19:16:44.396Z,11.20
2019-03-04T19:19:24.418Z,11.20
2019-03-04T19:22:04.696Z,11.10
2019-03-04T19:24:45.120Z,11.20
2019-03-04T19:27:25.201Z,11.10
2019-03-04T19:30:05.489Z,11.20
2019-03-04T19:32:45.573Z,11.00
2019-03-04T19:35:25.675Z,11.00
2019-03-04T19:38:06.066Z,11.00
2019-03-04T19:40:46.317Z,11.10
2019-03-04T19:43:32.888Z,11.30
2019-03-04T19:46:08.456Z,11.10
2019-03-04T19:48:48.489Z,11.20
2019-03-04T19:51:28.852Z,11.10
2019-03-04T19:54:09.042Z,10.80
2019-03-04T19:56:49.525Z,11.10
2019-03-04T20:02:28.318Z,10.70
2019-03-04T20:05:08.382Z,10.60
2019-03-04T20:07:48.557Z,10.60
2019-03-04T20:10:28.712Z,10.50
2019-03-04T20:13:08.871Z,11.00
2019-03-04T20:15:49.096Z,10.60
2019-03-04T20:18:29.246Z,10.70
2019-03-04T20:21:09.233Z,10.90
2019-03-04T20:23:49.401Z,10.70
2019-03-04T20:26:29.470Z,11.00
2019-03-04T20:31:55.248Z,10.80
2019-03-04T20:34:42.288Z,10.90
2019-03-04T20:37:22.006Z,10.60
2019-03-04T20:40:03.355Z,10.70
2019-03-04T20:42:43.504Z,10.60
2019-03-04T20:45:23.840Z,10.50
2019-03-04T20:48:04.350Z,10.60
2019-03-04T20:50:31.920Z,10.70
2019-03-04T20:52:59.504Z,10.70
2019-03-04T20:55:27.256Z,10.50
2019-03-04T20:57:54.995Z,10.70
2019-03-04T21:00:28.541Z,11.10
2019-03-04T21:02:56.216Z,10.90
2019-03-04T21:05:25.701Z,10.70
2019-03-04T21:07:53.244Z,10.60
2019-03-04T21:10:20.897Z,10.40
2019-03-04T21:12:49.384Z,10.30
2019-03-04T21:15:19.452Z,10.20
2019-03-04T21:18:06.462Z,10.20
2019-03-04T21:20:46.708Z,10.10
2019-03-04T21:23:26.635Z,10.00
2019-03-04T21:26:06.620Z,10.10
2019-03-04T21:28:46.776Z,10.20
2019-03-04T21:31:26.699Z,10.70
2019-03-04T21:34:06.796Z,10.60
2019-03-04T21:36:46.798Z,10.40
2019-03-04T21:39:31.190Z,10.50
2019-03-04T21:42:11.327Z,10.80
2019-03-04T21:44:51.476Z,10.80
2019-03-04T21:47:31.598Z,10.90
2019-03-04T21:50:11.588Z,10.30
2019-03-04T21:52:51.972Z,10.30
2019-03-04T21:55:31.969Z,9.80
2019-03-04T21:58:11.944Z,9.40
2019-03-04T22:00:52.296Z,9.00
2019-03-04T22:03:32.363Z,9.10
2019-03-04T22:06:12.637Z,8.90
2019-03-04T22:08:52.964Z,8.80
2019-03-04T22:11:33.331Z,8.40
2019-03-04T22:14:13.470Z,8.30
2019-03-04T22:16:53.921Z,8.30
2019-03-04T22:19:33.780Z,7.90
2019-03-04T22:22:14.084Z,7.90
2019-03-04T22:24:54.552Z,7.50
2019-03-04T22:27:34.346Z,7.60
2019-03-04T22:30:15.287Z,7.60
2019-03-04T22:32:55.615Z,7.70
2019-03-04T22:35:35.825Z,7.50
2019-03-04T22:38:15.790Z,7.50
2019-03-04T22:40:55.937Z,7.40
2019-03-04T22:43:36.323Z,7.40
2019-03-04T22:46:16.805Z,7.30
2019-03-04T22:48:56.736Z,7.50
2019-03-04T22:51:36.828Z,7.50
2019-03-04T22:54:16.721Z,7.40
2019-03-04T22:56:56.931Z,7.40
2019-03-04T22:59:24.644Z,7.50
2019-03-04T23:02:11.668Z,7.40
2019-03-04T23:05:05.860Z,7.30
2019-03-04T23:07:45.708Z,7.20
2019-03-04T23:10:26.165Z,7.50
2019-03-04T23:13:06.397Z,7.30
2019-03-04T23:15:46.658Z,7.50
2019-03-04T23:18:26.896Z,7.50
2019-03-04T23:21:06.924Z,7.50
2019-03-04T23:23:46.984Z,7.50
2019-03-04T23:26:27.284Z,7.60
2019-03-04T23:29:07.505Z,7.60
2019-03-04T23:31:48.275Z,7.50
2019-03-04T23:34:28.754Z,7.50
2019-03-04T23:37:09.156Z,7.50
2019-03-04T23:39:49.201Z,7.40
2019-03-04T23:42:29.193Z,7.50
2019-03-04T23:45:09.288Z,7.30
2019-03-04T23:47:49.561Z,7.20
2019-03-04T23:50:29.523Z,7.20
2019-03-04T23:53:09.680Z,6.90
2019-03-04T23:55:50.126Z,7.10
2019-03-04T23:58:30.005Z,6.90
